AirNav   Everest Fuels
 
 1172 users online  

04OG Teufel Heliport
Forest Grove, Oregon, USA

GOING TO FOREST GROVE?


FAA INFORMATION EFFECTIVE 22 APRIL 2021

Location

FAA Identifier: 04OG
Lat/Long: 45-31-51.0000N 123-05-08.0000W
45-31.850000N 123-05.133333W
45.5308333,-123.0855556
(estimated)
Elevation: 185 ft. / 56 m (estimated)
From city: 2 miles NE of FOREST GROVE, OR
Time zone: UTC -7 (UTC -8 during Standard Time)
Zip code: 97116

Heliport Operations

Heliport use: Private use. Permission required prior to landing
Activation date: 07/2009
Control tower: no
ARTCC: SEATTLE CENTER
FSS: MC MINNVILLE FLIGHT SERVICE STATION
Attendance: UNATNDD
Wind indicator: yes
Segmented circle: no

Heliport Communications

WX ASOS at HIO (6 nm E): PHONE 503-615-4314
WX ASOS at SPB (17 nm NE): 135.875 (503-543-6401)
WX ASOS at VUO (19 nm E): 135.125 (360-696-1280)

Nearby radio navigation aids

VOR radial/distance  VOR name  Freq  Var
UBGr316/11.6NEWBERG VOR/DME117.4021E
BTGr217/24.5BATTLE GROUND VORTAC116.6021E

 
NDB name  Hdg/Dist  Freq  Var  ID
BANKS180/6.235616EPND .--. -. -..

Heliport Services

Runway Information

Helipad H1

Dimensions: 50 x 100 ft. / 15 x 30 m
Surface: concrete
Traffic pattern: leftleft

Heliport Ownership and Management from official FAA records

Ownership: Privately-owned
Owner: OREGON ROSES INC
1804 NW MARTIN RD
FOREST GROVE, OR 97116
Phone 503-648-8551
Manager: FRED TEUFEL
1804 NW MARTIN RD
FOREST GROVE, OR 97116
Phone 503-648-8551
ADDN CTC: KATIE HYNEMAN, 503-319-1895; VP.ORI@COHO.NET

Additional Remarks

FOR CD CTC PORTLAND APCH AT 503-493-7545.

Instrument Procedures

There are no published instrument procedures at 04OG.

Some nearby airports with instrument procedures:

KHIO - Portland-Hillsboro Airport (6 nm E)
KSPB - Scappoose Industrial Airpark (17 nm NE)
KVUO - Pearson Field Airport (19 nm E)
KMMV - Mc Minnville Municipal Airport (20 nm S)
KPDX - Portland International Airport (21 nm E)
 
Loc | Ops | Rwys | IFR | FBO | Links
Com | Nav | Svcs | Stats | Notes
Aerial photo
No photo
 
Sectional chart

 
Airport distance calculator
Flying to Teufel Heliport? Find the distance to fly.

From to 04OG

Sunrise and sunset
Times for 05-May-2021
 Local
(UTC-7)
 Zulu
(UTC)
Morning civil twilight05:2212:22
Sunrise05:5512:55
Sunset20:2303:23
Evening civil twilight20:5603:56

Current date and time
Zulu (UTC)  05-May-2021 23:11:49
Local (UTC-7)  05-May-2021 16:11:49
 
METAR
KHIO 
6nm E 
052253Z 10SM CLR 27/07 A2985 RMK AO2 SLP107 T02720072
KSPB 
17nm NE 
052253Z AUTO 14004KT 10SM CLR 27/08 A2985 RMK AO2 SLP107 T02670083
KVUO 
19nm E 
052253Z AUTO 16004KT 10SM CLR 27/05 A2985 RMK AO2 SLP109 T02670050
KMMV 
20nm S 
052253Z AUTO 32008KT 300V020 10SM CLR 26/11 A2985 RMK AO2 SLP106 T02560106
TAF
KHIO 
6nm E 
051721Z 0518/0618 VRB04KT P6SM SCT250 FM060000 07008KT P6SM SCT250 FM060600 20004KT P6SM SCT250 FM061700 18008G15KT P6SM VCSH SCT035 BKN070
NOTAMs
Click for the latest NOTAMs
NOTAMs are issued by the DoD/FAA and will open in a separate window not controlled by AirNav.

 

 
 

Would you like to see your business listed on this page?

 If your business provides an interesting product or service to pilots, flight crews, aircraft, or users of the Teufel Heliport, you should consider listing it here.  To start the listing process, click on the button below
 
Add a business
 

Other Pages about Teufel Heliport

Update a link
 
Copyright © AirNav, LLC. All rights reserved. Privacy Policy  Contact